Terminal Aerodrome Forecast
Issued by NWS Paducah, KY

Home | Current Version | Previous Version | Text Only | Print | Product List | Glossary On
Versions: 1 2 3 4 5 6 7 8 9 10 11 12 13 14 15 16
079
FTUS43 KPAH 102038 AAB
TAFPAH
TAF AMD
KPAH 102038Z 1021/1118 25007KT 3SM -SN BR SCT020 OVC030
      TEMPO 1021/1023 1 1/2SM -SN BR OVC020
     FM110000 VRB06KT P6SM OVC030
     FM111500 04010KT P6SM SCT035=

USA.gov is the U.S. government's official web portal to all federal, state and local government web resources and services.